sensor_id;sensor_type;location;lat;lon;timestamp;temperature;humidity
39021;DHT22;25188;51.958;5.842;2023-07-16T00:02:12;18.70;96.60
39021;DHT22;25188;51.958;5.842;2023-07-16T00:04:37;18.70;96.40
39021;DHT22;25188;51.958;5.842;2023-07-16T00:07:03;18.70;96.00
39021;DHT22;25188;51.958;5.842;2023-07-16T00:09:29;18.60;95.80
39021;DHT22;25188;51.958;5.842;2023-07-16T00:11:56;18.50;95.60
39021;DHT22;25188;51.958;5.842;2023-07-16T00:14:22;18.50;95.70
39021;DHT22;25188;51.958;5.842;2023-07-16T00:16:47;18.50;95.60
39021;DHT22;25188;51.958;5.842;2023-07-16T00:19:14;18.60;95.50
39021;DHT22;25188;51.958;5.842;2023-07-16T00:21:40;18.50;95.40
39021;DHT22;25188;51.958;5.842;2023-07-16T00:24:06;18.50;95.40
39021;DHT22;25188;51.958;5.842;2023-07-16T00:26:31;18.50;95.40
39021;DHT22;25188;51.958;5.842;2023-07-16T00:28:57;18.50;95.40
39021;DHT22;25188;51.958;5.842;2023-07-16T00:31:23;18.50;95.40
39021;DHT22;25188;51.958;5.842;2023-07-16T00:33:48;18.50;95.50
39021;DHT22;25188;51.958;5.842;2023-07-16T00:36:14;18.50;95.60
39021;DHT22;25188;51.958;5.842;2023-07-16T00:38:39;18.50;95.70
39021;DHT22;25188;51.958;5.842;2023-07-16T00:41:06;18.50;95.80
39021;DHT22;25188;51.958;5.842;2023-07-16T00:43:32;18.50;95.90
39021;DHT22;25188;51.958;5.842;2023-07-16T00:45:58;18.50;96.00
39021;DHT22;25188;51.958;5.842;2023-07-16T00:48:24;18.50;96.10
39021;DHT22;25188;51.958;5.842;2023-07-16T00:50:50;18.40;96.20
39021;DHT22;25188;51.958;5.842;2023-07-16T00:53:17;18.40;96.30
39021;DHT22;25188;51.958;5.842;2023-07-16T00:55:43;18.40;96.40
39021;DHT22;25188;51.958;5.842;2023-07-16T00:58:09;18.40;96.70
39021;DHT22;25188;51.958;5.842;2023-07-16T01:00:36;18.40;96.50
39021;DHT22;25188;51.958;5.842;2023-07-16T01:03:04;18.40;96.50
39021;DHT22;25188;51.958;5.842;2023-07-16T01:08:33;18.40;96.20
39021;DHT22;25188;51.958;5.842;2023-07-16T01:11:02;18.40;95.80
39021;DHT22;25188;51.958;5.842;2023-07-16T01:13:29;18.40;95.60
39021;DHT22;25188;51.958;5.842;2023-07-16T01:15:55;18.40;95.40
39021;DHT22;25188;51.958;5.842;2023-07-16T01:18:20;18.40;95.20
39021;DHT22;25188;51.958;5.842;2023-07-16T01:20:46;18.40;95.10
39021;DHT22;25188;51.958;5.842;2023-07-16T01:31:50;18.20;94.40
39021;DHT22;25188;51.958;5.842;2023-07-16T01:34:17;18.20;94.30
39021;DHT22;25188;51.958;5.842;2023-07-16T01:36:43;18.10;94.20
39021;DHT22;25188;51.958;5.842;2023-07-16T01:39:09;18.10;94.10
39021;DHT22;25188;51.958;5.842;2023-07-16T01:41:35;18.10;94.10
39021;DHT22;25188;51.958;5.842;2023-07-16T01:44:00;18.00;94.00
39021;DHT22;25188;51.958;5.842;2023-07-16T01:46:26;18.00;93.80
39021;DHT22;25188;51.958;5.842;2023-07-16T01:48:52;17.90;93.80
39021;DHT22;25188;51.958;5.842;2023-07-16T01:51:17;17.90;93.70
39021;DHT22;25188;51.958;5.842;2023-07-16T01:53:45;17.90;93.70
39021;DHT22;25188;51.958;5.842;2023-07-16T01:56:12;17.80;93.60
39021;DHT22;25188;51.958;5.842;2023-07-16T01:58:38;17.80;93.50
39021;DHT22;25188;51.958;5.842;2023-07-16T02:01:03;17.80;93.50
39021;DHT22;25188;51.958;5.842;2023-07-16T02:03:29;17.80;93.40
39021;DHT22;25188;51.958;5.842;2023-07-16T02:05:55;17.70;93.30
39021;DHT22;25188;51.958;5.842;2023-07-16T02:08:20;17.70;93.20
39021;DHT22;25188;51.958;5.842;2023-07-16T02:10:49;17.70;93.20
39021;DHT22;25188;51.958;5.842;2023-07-16T02:13:15;17.70;93.10
39021;DHT22;25188;51.958;5.842;2023-07-16T02:15:42;17.60;93.10
39021;DHT22;25188;51.958;5.842;2023-07-16T02:18:08;17.60;93.10
39021;DHT22;25188;51.958;5.842;2023-07-16T02:20:33;17.50;93.00
39021;DHT22;25188;51.958;5.842;2023-07-16T02:22:59;17.50;93.00
39021;DHT22;25188;51.958;5.842;2023-07-16T02:25:25;17.50;93.00
39021;DHT22;25188;51.958;5.842;2023-07-16T02:27:51;17.50;92.90
39021;DHT22;25188;51.958;5.842;2023-07-16T02:30:16;17.40;93.20
39021;DHT22;25188;51.958;5.842;2023-07-16T02:32:42;17.40;92.90
39021;DHT22;25188;51.958;5.842;2023-07-16T02:35:09;17.40;92.90
39021;DHT22;25188;51.958;5.842;2023-07-16T02:37:34;17.40;92.90
39021;DHT22;25188;51.958;5.842;2023-07-16T02:40:00;17.30;92.80
39021;DHT22;25188;51.958;5.842;2023-07-16T02:42:26;17.30;92.70
39021;DHT22;25188;51.958;5.842;2023-07-16T02:44:52;17.30;92.70
39021;DHT22;25188;51.958;5.842;2023-07-16T02:47:18;17.30;92.70
39021;DHT22;25188;51.958;5.842;2023-07-16T02:49:43;17.20;92.70
39021;DHT22;25188;51.958;5.842;2023-07-16T02:52:09;17.20;92.80
39021;DHT22;25188;51.958;5.842;2023-07-16T02:54:38;17.10;92.80
39021;DHT22;25188;51.958;5.842;2023-07-16T02:57:05;17.10;92.90
39021;DHT22;25188;51.958;5.842;2023-07-16T02:59:30;17.10;93.00
39021;DHT22;25188;51.958;5.842;2023-07-16T03:01:56;17.10;93.00
39021;DHT22;25188;51.958;5.842;2023-07-16T03:04:21;17.10;93.10
39021;DHT22;25188;51.958;5.842;2023-07-16T03:06:47;17.10;93.20
39021;DHT22;25188;51.958;5.842;2023-07-16T03:09:13;17.00;93.20
39021;DHT22;25188;51.958;5.842;2023-07-16T03:11:38;17.00;93.70
39021;DHT22;25188;51.958;5.842;2023-07-16T03:14:04;17.00;93.50
39021;DHT22;25188;51.958;5.842;2023-07-16T03:16:29;17.00;93.60
39021;DHT22;25188;51.958;5.842;2023-07-16T03:18:55;17.00;93.70
39021;DHT22;25188;51.958;5.842;2023-07-16T03:21:21;17.00;93.80
39021;DHT22;25188;51.958;5.842;2023-07-16T03:23:46;17.00;93.90
39021;DHT22;25188;51.958;5.842;2023-07-16T03:26:12;17.00;94.10
39021;DHT22;25188;51.958;5.842;2023-07-16T03:28:38;17.00;94.20
39021;DHT22;25188;51.958;5.842;2023-07-16T03:31:03;17.00;94.40
39021;DHT22;25188;51.958;5.842;2023-07-16T03:33:29;17.00;94.40
39021;DHT22;25188;51.958;5.842;2023-07-16T03:35:54;17.00;94.40
39021;DHT22;25188;51.958;5.842;2023-07-16T03:38:20;17.00;94.40
39021;DHT22;25188;51.958;5.842;2023-07-16T03:40:50;17.00;94.40
39021;DHT22;25188;51.958;5.842;2023-07-16T03:43:16;17.00;94.40
39021;DHT22;25188;51.958;5.842;2023-07-16T03:45:42;17.00;94.70
39021;DHT22;25188;51.958;5.842;2023-07-16T03:48:08;17.00;94.40
39021;DHT22;25188;51.958;5.842;2023-07-16T03:50:34;16.90;94.30
39021;DHT22;25188;51.958;5.842;2023-07-16T03:53:00;17.00;94.40
39021;DHT22;25188;51.958;5.842;2023-07-16T03:55:25;17.00;94.30
39021;DHT22;25188;51.958;5.842;2023-07-16T03:57:51;17.00;94.30
39021;DHT22;25188;51.958;5.842;2023-07-16T04:00:17;17.00;94.20
39021;DHT22;25188;51.958;5.842;2023-07-16T04:02:43;17.00;94.20
39021;DHT22;25188;51.958;5.842;2023-07-16T04:05:10;16.90;94.10
39021;DHT22;25188;51.958;5.842;2023-07-16T04:07:35;17.00;94.10
39021;DHT22;25188;51.958;5.842;2023-07-16T04:10:02;16.90;94.00
39021;DHT22;25188;51.958;5.842;2023-07-16T04:12:27;17.00;94.10
39021;DHT22;25188;51.958;5.842;2023-07-16T04:14:58;17.00;94.10
39021;DHT22;25188;51.958;5.842;2023-07-16T04:17:24;17.00;94.20
39021;DHT22;25188;51.958;5.842;2023-07-16T04:19:50;17.00;94.20
39021;DHT22;25188;51.958;5.842;2023-07-16T04:22:16;17.00;94.30
39021;DHT22;25188;51.958;5.842;2023-07-16T04:24:41;17.00;94.40
39021;DHT22;25188;51.958;5.842;2023-07-16T04:27:07;17.00;94.50
39021;DHT22;25188;51.958;5.842;2023-07-16T04:29:33;17.00;94.50
39021;DHT22;25188;51.958;5.842;2023-07-16T04:31:59;17.00;94.60
39021;DHT22;25188;51.958;5.842;2023-07-16T04:34:25;17.00;94.70
39021;DHT22;25188;51.958;5.842;2023-07-16T04:36:50;17.00;94.70
39021;DHT22;25188;51.958;5.842;2023-07-16T04:39:16;17.10;94.70
39021;DHT22;25188;51.958;5.842;2023-07-16T04:41:41;17.00;94.60
39021;DHT22;25188;51.958;5.842;2023-07-16T04:44:07;17.00;94.60
39021;DHT22;25188;51.958;5.842;2023-07-16T04:46:33;17.10;94.50
39021;DHT22;25188;51.958;5.842;2023-07-16T04:48:59;17.00;94.30
39021;DHT22;25188;51.958;5.842;2023-07-16T04:51:25;17.00;94.20
39021;DHT22;25188;51.958;5.842;2023-07-16T04:53:51;17.00;94.10
39021;DHT22;25188;51.958;5.842;2023-07-16T04:56:16;17.00;93.90
39021;DHT22;25188;51.958;5.842;2023-07-16T04:58:42;17.10;93.80
39021;DHT22;25188;51.958;5.842;2023-07-16T05:01:09;17.10;93.70
39021;DHT22;25188;51.958;5.842;2023-07-16T05:03:35;17.10;93.60
39021;DHT22;25188;51.958;5.842;2023-07-16T05:06:01;17.10;93.40
39021;DHT22;25188;51.958;5.842;2023-07-16T05:08:27;17.10;93.30
39021;DHT22;25188;51.958;5.842;2023-07-16T05:10:53;17.10;93.20
39021;DHT22;25188;51.958;5.842;2023-07-16T05:13:18;17.10;93.00
39021;DHT22;25188;51.958;5.842;2023-07-16T05:15:44;17.10;92.90
39021;DHT22;25188;51.958;5.842;2023-07-16T05:18:10;17.00;92.80
39021;DHT22;25188;51.958;5.842;2023-07-16T05:20:36;17.00;92.80
39021;DHT22;25188;51.958;5.842;2023-07-16T05:23:01;17.00;92.70
39021;DHT22;25188;51.958;5.842;2023-07-16T05:25:27;17.00;92.60
39021;DHT22;25188;51.958;5.842;2023-07-16T05:27:52;17.00;92.70
39021;DHT22;25188;51.958;5.842;2023-07-16T05:30:18;17.00;92.50
39021;DHT22;25188;51.958;5.842;2023-07-16T05:32:44;17.00;92.40
39021;DHT22;25188;51.958;5.842;2023-07-16T05:35:09;17.00;92.40
39021;DHT22;25188;51.958;5.842;2023-07-16T05:37:35;17.00;92.20
39021;DHT22;25188;51.958;5.842;2023-07-16T05:40:01;17.00;92.20
39021;DHT22;25188;51.958;5.842;2023-07-16T05:42:28;17.10;92.10
39021;DHT22;25188;51.958;5.842;2023-07-16T05:44:54;17.10;92.00
39021;DHT22;25188;51.958;5.842;2023-07-16T05:47:19;17.10;91.80
39021;DHT22;25188;51.958;5.842;2023-07-16T05:49:45;17.00;91.80
39021;DHT22;25188;51.958;5.842;2023-07-16T05:52:11;17.10;91.80
39021;DHT22;25188;51.958;5.842;2023-07-16T05:54:36;17.10;91.70
39021;DHT22;25188;51.958;5.842;2023-07-16T05:57:02;17.10;91.60
39021;DHT22;25188;51.958;5.842;2023-07-16T05:59:27;17.10;91.40
39021;DHT22;25188;51.958;5.842;2023-07-16T06:01:53;17.10;91.40
39021;DHT22;25188;51.958;5.842;2023-07-16T06:04:19;17.10;91.30
39021;DHT22;25188;51.958;5.842;2023-07-16T06:06:44;17.10;91.30
39021;DHT22;25188;51.958;5.842;2023-07-16T06:09:10;17.20;91.30
39021;DHT22;25188;51.958;5.842;2023-07-16T06:11:36;17.20;91.30
39021;DHT22;25188;51.958;5.842;2023-07-16T06:14:02;17.20;91.10
39021;DHT22;25188;51.958;5.842;2023-07-16T06:16:28;17.20;90.70
39021;DHT22;25188;51.958;5.842;2023-07-16T06:18:53;17.20;90.80
39021;DHT22;25188;51.958;5.842;2023-07-16T06:21:19;17.20;90.70
39021;DHT22;25188;51.958;5.842;2023-07-16T06:23:45;17.20;90.60
39021;DHT22;25188;51.958;5.842;2023-07-16T06:26:10;17.30;90.60
39021;DHT22;25188;51.958;5.842;2023-07-16T06:28:36;17.30;90.50
39021;DHT22;25188;51.958;5.842;2023-07-16T06:31:02;17.30;90.50
39021;DHT22;25188;51.958;5.842;2023-07-16T06:33:27;17.30;90.40
39021;DHT22;25188;51.958;5.842;2023-07-16T06:35:53;17.40;90.40
39021;DHT22;25188;51.958;5.842;2023-07-16T06:38:19;17.40;90.10
39021;DHT22;25188;51.958;5.842;2023-07-16T06:40:49;17.40;90.00
39021;DHT22;25188;51.958;5.842;2023-07-16T06:43:15;17.40;90.10
39021;DHT22;25188;51.958;5.842;2023-07-16T06:45:41;17.50;90.00
39021;DHT22;25188;51.958;5.842;2023-07-16T06:48:06;17.50;89.80
39021;DHT22;25188;51.958;5.842;2023-07-16T06:50:32;17.50;89.80
39021;DHT22;25188;51.958;5.842;2023-07-16T06:52:58;17.50;89.70
39021;DHT22;25188;51.958;5.842;2023-07-16T06:55:23;17.60;90.20
39021;DHT22;25188;51.958;5.842;2023-07-16T06:57:49;17.60;89.80
39021;DHT22;25188;51.958;5.842;2023-07-16T07:00:15;17.60;89.60
39021;DHT22;25188;51.958;5.842;2023-07-16T07:02:40;17.70;89.20
39021;DHT22;25188;51.958;5.842;2023-07-16T07:05:06;17.70;89.20
39021;DHT22;25188;51.958;5.842;2023-07-16T07:07:32;17.70;89.20
39021;DHT22;25188;51.958;5.842;2023-07-16T07:09:58;17.80;89.20
39021;DHT22;25188;51.958;5.842;2023-07-16T07:12:23;17.80;89.20
39021;DHT22;25188;51.958;5.842;2023-07-16T07:14:49;17.80;88.80
39021;DHT22;25188;51.958;5.842;2023-07-16T07:17:15;17.80;88.70
39021;DHT22;25188;51.958;5.842;2023-07-16T07:19:41;17.80;88.60
39021;DHT22;25188;51.958;5.842;2023-07-16T07:22:07;17.90;88.70
39021;DHT22;25188;51.958;5.842;2023-07-16T07:24:32;17.90;88.40
39021;DHT22;25188;51.958;5.842;2023-07-16T07:26:58;17.90;88.20
39021;DHT22;25188;51.958;5.842;2023-07-16T07:29:23;18.00;88.30
39021;DHT22;25188;51.958;5.842;2023-07-16T07:31:50;18.00;87.90
39021;DHT22;25188;51.958;5.842;2023-07-16T07:34:15;18.00;87.90
39021;DHT22;25188;51.958;5.842;2023-07-16T07:36:41;18.00;87.50
39021;DHT22;25188;51.958;5.842;2023-07-16T07:39:07;18.10;87.60
39021;DHT22;25188;51.958;5.842;2023-07-16T07:41:33;18.10;87.40
39021;DHT22;25188;51.958;5.842;2023-07-16T07:43:59;18.20;87.50
39021;DHT22;25188;51.958;5.842;2023-07-16T07:46:24;18.20;86.90
39021;DHT22;25188;51.958;5.842;2023-07-16T07:48:50;18.30;86.80
39021;DHT22;25188;51.958;5.842;2023-07-16T07:51:16;18.30;86.20
39021;DHT22;25188;51.958;5.842;2023-07-16T07:53:41;18.30;86.00
39021;DHT22;25188;51.958;5.842;2023-07-16T07:56:07;18.30;86.10
39021;DHT22;25188;51.958;5.842;2023-07-16T07:58:33;18.40;85.80
39021;DHT22;25188;51.958;5.842;2023-07-16T08:01:04;18.40;86.40
39021;DHT22;25188;51.958;5.842;2023-07-16T08:03:30;18.40;85.40
39021;DHT22;25188;51.958;5.842;2023-07-16T08:05:56;18.50;85.20
39021;DHT22;25188;51.958;5.842;2023-07-16T08:08:22;18.50;85.20
39021;DHT22;25188;51.958;5.842;2023-07-16T08:10:47;18.60;85.00
39021;DHT22;25188;51.958;5.842;2023-07-16T08:13:13;18.60;84.90
39021;DHT22;25188;51.958;5.842;2023-07-16T08:15:39;18.60;84.80
39021;DHT22;25188;51.958;5.842;2023-07-16T08:18:04;18.70;84.60
39021;DHT22;25188;51.958;5.842;2023-07-16T08:20:30;18.70;84.70
39021;DHT22;25188;51.958;5.842;2023-07-16T08:22:56;18.80;84.90
39021;DHT22;25188;51.958;5.842;2023-07-16T08:25:22;18.80;84.80
39021;DHT22;25188;51.958;5.842;2023-07-16T08:27:47;19.00;84.70
39021;DHT22;25188;51.958;5.842;2023-07-16T08:30:13;19.00;84.10
39021;DHT22;25188;51.958;5.842;2023-07-16T08:32:39;19.00;83.30
39021;DHT22;25188;51.958;5.842;2023-07-16T08:35:05;19.10;82.90
39021;DHT22;25188;51.958;5.842;2023-07-16T08:37:31;19.10;82.90
39021;DHT22;25188;51.958;5.842;2023-07-16T08:39:56;19.10;82.60
39021;DHT22;25188;51.958;5.842;2023-07-16T08:42:23;19.20;82.60
39021;DHT22;25188;51.958;5.842;2023-07-16T08:44:49;19.30;82.70
39021;DHT22;25188;51.958;5.842;2023-07-16T08:47:16;19.40;82.20
39021;DHT22;25188;51.958;5.842;2023-07-16T08:49:56;19.40;82.10
39021;DHT22;25188;51.958;5.842;2023-07-16T08:52:22;19.50;82.10
39021;DHT22;25188;51.958;5.842;2023-07-16T08:54:48;19.60;82.00
39021;DHT22;25188;51.958;5.842;2023-07-16T08:57:14;19.60;81.60
39021;DHT22;25188;51.958;5.842;2023-07-16T08:59:40;19.70;81.20
39021;DHT22;25188;51.958;5.842;2023-07-16T09:02:06;19.80;81.10
39021;DHT22;25188;51.958;5.842;2023-07-16T09:04:32;19.90;80.90
39021;DHT22;25188;51.958;5.842;2023-07-16T09:06:58;20.00;80.90
39021;DHT22;25188;51.958;5.842;2023-07-16T09:09:24;20.00;80.80
39021;DHT22;25188;51.958;5.842;2023-07-16T09:11:51;20.20;80.70
39021;DHT22;25188;51.958;5.842;2023-07-16T09:14:18;20.20;80.30
39021;DHT22;25188;51.958;5.842;2023-07-16T09:16:48;20.30;79.70
39021;DHT22;25188;51.958;5.842;2023-07-16T09:19:14;20.50;79.30
39021;DHT22;25188;51.958;5.842;2023-07-16T09:21:42;20.50;79.10
39021;DHT22;25188;51.958;5.842;2023-07-16T09:24:08;20.60;78.80
39021;DHT22;25188;51.958;5.842;2023-07-16T09:26:37;20.70;78.40
39021;DHT22;25188;51.958;5.842;2023-07-16T09:29:07;20.80;78.00
39021;DHT22;25188;51.958;5.842;2023-07-16T09:31:33;20.80;77.60
39021;DHT22;25188;51.958;5.842;2023-07-16T09:33:59;20.90;77.20
39021;DHT22;25188;51.958;5.842;2023-07-16T09:36:25;20.90;77.10
39021;DHT22;25188;51.958;5.842;2023-07-16T09:38:53;20.80;76.80
39021;DHT22;25188;51.958;5.842;2023-07-16T09:41:20;20.80;76.80
39021;DHT22;25188;51.958;5.842;2023-07-16T09:43:46;20.80;76.60
39021;DHT22;25188;51.958;5.842;2023-07-16T09:46:12;20.70;76.50
39021;DHT22;25188;51.958;5.842;2023-07-16T09:48:38;20.60;76.60
39021;DHT22;25188;51.958;5.842;2023-07-16T09:51:06;20.60;76.20
39021;DHT22;25188;51.958;5.842;2023-07-16T09:53:33;20.60;76.20
39021;DHT22;25188;51.958;5.842;2023-07-16T09:56:00;20.60;76.40
39021;DHT22;25188;51.958;5.842;2023-07-16T09:58:28;20.60;76.10
39021;DHT22;25188;51.958;5.842;2023-07-16T10:00:54;20.70;75.90
39021;DHT22;25188;51.958;5.842;2023-07-16T10:03:20;20.80;75.90
39021;DHT22;25188;51.958;5.842;2023-07-16T10:05:45;20.90;75.50
39021;DHT22;25188;51.958;5.842;2023-07-16T10:08:19;20.90;75.40
39021;DHT22;25188;51.958;5.842;2023-07-16T10:10:54;21.00;75.40
39021;DHT22;25188;51.958;5.842;2023-07-16T10:13:23;21.20;75.30
39021;DHT22;25188;51.958;5.842;2023-07-16T10:15:56;21.40;75.20
39021;DHT22;25188;51.958;5.842;2023-07-16T10:18:30;21.50;74.60
39021;DHT22;25188;51.958;5.842;2023-07-16T10:21:06;21.60;74.40
39021;DHT22;25188;51.958;5.842;2023-07-16T10:23:43;21.70;74.10
39021;DHT22;25188;51.958;5.842;2023-07-16T10:26:12;21.70;74.10
39021;DHT22;25188;51.958;5.842;2023-07-16T10:28:38;21.80;73.80
39021;DHT22;25188;51.958;5.842;2023-07-16T10:31:05;21.80;73.50
39021;DHT22;25188;51.958;5.842;2023-07-16T10:33:34;21.90;73.10
39021;DHT22;25188;51.958;5.842;2023-07-16T10:36:02;21.90;72.50
39021;DHT22;25188;51.958;5.842;2023-07-16T10:38:28;21.90;72.30
39021;DHT22;25188;51.958;5.842;2023-07-16T10:40:55;21.90;72.30
39021;DHT22;25188;51.958;5.842;2023-07-16T10:43:21;21.90;72.20
39021;DHT22;25188;51.958;5.842;2023-07-16T10:45:47;22.00;72.20
39021;DHT22;25188;51.958;5.842;2023-07-16T10:48:12;21.90;72.10
39021;DHT22;25188;51.958;5.842;2023-07-16T10:50:38;21.90;72.10
39021;DHT22;25188;51.958;5.842;2023-07-16T10:53:04;22.00;72.10
39021;DHT22;25188;51.958;5.842;2023-07-16T10:55:30;22.10;72.10
39021;DHT22;25188;51.958;5.842;2023-07-16T10:57:58;22.10;72.00
39021;DHT22;25188;51.958;5.842;2023-07-16T11:00:24;22.10;71.70
39021;DHT22;25188;51.958;5.842;2023-07-16T11:02:50;22.10;71.60
39021;DHT22;25188;51.958;5.842;2023-07-16T11:05:17;22.10;71.50
39021;DHT22;25188;51.958;5.842;2023-07-16T11:07:48;22.10;71.30
39021;DHT22;25188;51.958;5.842;2023-07-16T11:10:18;22.00;71.20
39021;DHT22;25188;51.958;5.842;2023-07-16T11:12:44;21.90;71.00
39021;DHT22;25188;51.958;5.842;2023-07-16T11:15:10;21.90;70.80
39021;DHT22;25188;51.958;5.842;2023-07-16T11:17:39;21.80;70.90
39021;DHT22;25188;51.958;5.842;2023-07-16T11:20:07;21.80;71.00
39021;DHT22;25188;51.958;5.842;2023-07-16T11:22:37;21.80;71.20
39021;DHT22;25188;51.958;5.842;2023-07-16T11:25:10;21.90;71.40
39021;DHT22;25188;51.958;5.842;2023-07-16T11:27:41;22.00;71.40
39021;DHT22;25188;51.958;5.842;2023-07-16T11:30:07;22.00;71.20
39021;DHT22;25188;51.958;5.842;2023-07-16T11:32:41;22.10;71.20
39021;DHT22;25188;51.958;5.842;2023-07-16T11:35:07;22.10;71.20
39021;DHT22;25188;51.958;5.842;2023-07-16T11:37:35;22.20;71.20
39021;DHT22;25188;51.958;5.842;2023-07-16T11:40:08;22.30;71.20
39021;DHT22;25188;51.958;5.842;2023-07-16T11:42:38;22.40;71.10
39021;DHT22;25188;51.958;5.842;2023-07-16T11:45:16;22.40;70.80
39021;DHT22;25188;51.958;5.842;2023-07-16T11:47:42;22.40;70.50
39021;DHT22;25188;51.958;5.842;2023-07-16T11:50:08;22.30;70.10
39021;DHT22;25188;51.958;5.842;2023-07-16T11:52:33;22.30;70.00
39021;DHT22;25188;51.958;5.842;2023-07-16T11:54:59;22.20;70.20
39021;DHT22;25188;51.958;5.842;2023-07-16T11:57:25;22.10;70.70
39021;DHT22;25188;51.958;5.842;2023-07-16T11:59:51;22.20;71.10
39021;DHT22;25188;51.958;5.842;2023-07-16T12:02:17;22.30;71.40
39021;DHT22;25188;51.958;5.842;2023-07-16T12:04:42;22.40;71.50
39021;DHT22;25188;51.958;5.842;2023-07-16T12:07:08;22.60;71.20
39021;DHT22;25188;51.958;5.842;2023-07-16T12:09:34;22.70;71.00
39021;DHT22;25188;51.958;5.842;2023-07-16T12:12:00;22.80;70.70
39021;DHT22;25188;51.958;5.842;2023-07-16T12:14:26;22.90;70.60
39021;DHT22;25188;51.958;5.842;2023-07-16T12:16:51;22.90;70.50
39021;DHT22;25188;51.958;5.842;2023-07-16T12:19:17;22.90;70.30
39021;DHT22;25188;51.958;5.842;2023-07-16T12:21:43;22.90;70.20
39021;DHT22;25188;51.958;5.842;2023-07-16T12:24:09;23.00;70.20
39021;DHT22;25188;51.958;5.842;2023-07-16T12:26:35;23.00;69.70
39021;DHT22;25188;51.958;5.842;2023-07-16T12:29:01;23.00;69.70
39021;DHT22;25188;51.958;5.842;2023-07-16T12:31:33;23.10;69.60
39021;DHT22;25188;51.958;5.842;2023-07-16T12:34:00;23.10;69.50
39021;DHT22;25188;51.958;5.842;2023-07-16T12:36:29;23.30;69.60
39021;DHT22;25188;51.958;5.842;2023-07-16T12:38:55;23.60;69.40
39021;DHT22;25188;51.958;5.842;2023-07-16T12:41:21;23.80;68.90
39021;DHT22;25188;51.958;5.842;2023-07-16T12:43:47;24.00;68.60
39021;DHT22;25188;51.958;5.842;2023-07-16T12:46:13;24.30;68.00
39021;DHT22;25188;51.958;5.842;2023-07-16T12:48:38;24.50;67.40
39021;DHT22;25188;51.958;5.842;2023-07-16T12:51:04;24.60;66.80
39021;DHT22;25188;51.958;5.842;2023-07-16T12:53:30;24.60;66.30
39021;DHT22;25188;51.958;5.842;2023-07-16T12:55:55;24.70;66.20
39021;DHT22;25188;51.958;5.842;2023-07-16T12:58:21;24.70;66.30
39021;DHT22;25188;51.958;5.842;2023-07-16T13:00:47;24.70;66.00
39021;DHT22;25188;51.958;5.842;2023-07-16T13:03:12;24.60;65.80
39021;DHT22;25188;51.958;5.842;2023-07-16T13:05:44;24.60;65.60
39021;DHT22;25188;51.958;5.842;2023-07-16T13:08:10;24.60;66.00
39021;DHT22;25188;51.958;5.842;2023-07-16T13:10:36;24.60;65.90
39021;DHT22;25188;51.958;5.842;2023-07-16T13:13:02;24.70;65.60
39021;DHT22;25188;51.958;5.842;2023-07-16T13:15:29;24.80;64.90
39021;DHT22;25188;51.958;5.842;2023-07-16T13:17:54;24.70;64.80
39021;DHT22;25188;51.958;5.842;2023-07-16T13:20:21;24.60;64.20
39021;DHT22;25188;51.958;5.842;2023-07-16T13:22:47;24.40;64.10
39021;DHT22;25188;51.958;5.842;2023-07-16T13:25:13;24.30;64.50
39021;DHT22;25188;51.958;5.842;2023-07-16T13:27:38;24.30;64.50
39021;DHT22;25188;51.958;5.842;2023-07-16T13:30:05;24.30;64.80
39021;DHT22;25188;51.958;5.842;2023-07-16T13:32:31;24.60;65.00
39021;DHT22;25188;51.958;5.842;2023-07-16T13:34:57;24.80;64.60
39021;DHT22;25188;51.958;5.842;2023-07-16T13:37:22;25.00;63.70
39021;DHT22;25188;51.958;5.842;2023-07-16T13:39:48;25.20;63.50
39021;DHT22;25188;51.958;5.842;2023-07-16T13:42:14;25.40;62.90
39021;DHT22;25188;51.958;5.842;2023-07-16T13:44:39;25.60;62.80
39021;DHT22;25188;51.958;5.842;2023-07-16T13:47:05;25.90;62.20
39021;DHT22;25188;51.958;5.842;2023-07-16T13:49:30;25.90;62.00
39021;DHT22;25188;51.958;5.842;2023-07-16T13:51:56;26.00;61.70
39021;DHT22;25188;51.958;5.842;2023-07-16T13:54:22;26.10;61.60
39021;DHT22;25188;51.958;5.842;2023-07-16T13:56:48;26.30;61.50
39021;DHT22;25188;51.958;5.842;2023-07-16T13:59:14;26.50;61.10
39021;DHT22;25188;51.958;5.842;2023-07-16T14:01:40;26.60;60.10
39021;DHT22;25188;51.958;5.842;2023-07-16T14:04:06;26.50;60.00
39021;DHT22;25188;51.958;5.842;2023-07-16T14:06:32;26.60;59.50
39021;DHT22;25188;51.958;5.842;2023-07-16T14:08:59;26.80;59.20
39021;DHT22;25188;51.958;5.842;2023-07-16T14:11:24;27.00;59.10
39021;DHT22;25188;51.958;5.842;2023-07-16T14:13:50;27.00;58.00
39021;DHT22;25188;51.958;5.842;2023-07-16T14:16:17;26.90;57.70
39021;DHT22;25188;51.958;5.842;2023-07-16T14:18:43;26.80;57.60
39021;DHT22;25188;51.958;5.842;2023-07-16T14:21:09;26.60;57.40
39021;DHT22;25188;51.958;5.842;2023-07-16T14:23:35;26.40;57.90
39021;DHT22;25188;51.958;5.842;2023-07-16T14:26:01;26.30;57.70
39021;DHT22;25188;51.958;5.842;2023-07-16T14:28:28;26.10;57.70
39021;DHT22;25188;51.958;5.842;2023-07-16T14:30:55;26.00;58.10
39021;DHT22;25188;51.958;5.842;2023-07-16T14:33:21;25.90;58.00
39021;DHT22;25188;51.958;5.842;2023-07-16T14:35:47;25.80;57.80
39021;DHT22;25188;51.958;5.842;2023-07-16T14:38:12;25.70;57.70
39021;DHT22;25188;51.958;5.842;2023-07-16T14:40:38;25.60;57.70
39021;DHT22;25188;51.958;5.842;2023-07-16T14:43:04;25.50;57.30
39021;DHT22;25188;51.958;5.842;2023-07-16T14:45:31;25.40;57.50
39021;DHT22;25188;51.958;5.842;2023-07-16T14:47:58;25.20;57.80
39021;DHT22;25188;51.958;5.842;2023-07-16T14:50:23;25.20;57.90
39021;DHT22;25188;51.958;5.842;2023-07-16T14:52:49;25.10;58.10
39021;DHT22;25188;51.958;5.842;2023-07-16T14:55:15;25.10;58.40
39021;DHT22;25188;51.958;5.842;2023-07-16T14:57:40;25.10;58.50
39021;DHT22;25188;51.958;5.842;2023-07-16T15:00:07;25.20;58.60
39021;DHT22;25188;51.958;5.842;2023-07-16T15:02:36;25.40;58.40
39021;DHT22;25188;51.958;5.842;2023-07-16T15:05:03;25.50;58.20
39021;DHT22;25188;51.958;5.842;2023-07-16T15:07:30;25.80;57.90
39021;DHT22;25188;51.958;5.842;2023-07-16T15:09:56;26.00;57.60
39021;DHT22;25188;51.958;5.842;2023-07-16T15:12:21;26.30;57.10
39021;DHT22;25188;51.958;5.842;2023-07-16T15:14:47;26.40;56.70
39021;DHT22;25188;51.958;5.842;2023-07-16T15:17:12;26.40;56.30
39021;DHT22;25188;51.958;5.842;2023-07-16T15:19:39;26.40;56.30
39021;DHT22;25188;51.958;5.842;2023-07-16T15:22:06;26.30;56.50
39021;DHT22;25188;51.958;5.842;2023-07-16T15:24:32;26.10;56.60
39021;DHT22;25188;51.958;5.842;2023-07-16T15:26:58;25.90;56.70
39021;DHT22;25188;51.958;5.842;2023-07-16T15:29:24;25.70;57.40
39021;DHT22;25188;51.958;5.842;2023-07-16T15:31:49;25.50;57.00
39021;DHT22;25188;51.958;5.842;2023-07-16T15:34:15;25.30;57.10
39021;DHT22;25188;51.958;5.842;2023-07-16T15:36:41;25.10;57.40